Terminal Aerodrome Forecast
Issued by NWS

Home | Current Version | Previous Version | Text Only | Print | Product List | Glossary On
Versions: 1 2 3 4 5 6 7 8 9 10 11 12 13 14 15 16 17 18
000
FTUS45 KBYZ 162337
TAFLVM
TAF
KLVM 162337Z 1700/1724 14005KT 1SM -SN BR OVC030
     FM170200 11005KT 3SM -SN BR OVC030
     FM170300 21012KT P6SM BKN080
     FM171300 23030G40KT P6SM SCT250
     FM172100 23040G50KT P6SM SCT250=

USA.gov is the U.S. government's official web portal to all federal, state and local government web resources and services.